sensor_id;sensor_type;location;lat;lon;timestamp;pressure;altitude;pressure_sealevel;temperature
73662;BMP280;61956;52.540;13.382;2022-10-17T00:02:00;89946.66;;;14.76
73662;BMP280;61956;52.540;13.382;2022-10-17T00:04:29;89990.41;;;14.77
73662;BMP280;61956;52.540;13.382;2022-10-17T00:07:01;90265.88;;;14.81
73662;BMP280;61956;52.540;13.382;2022-10-17T00:09:30;89797.88;;;14.77
73662;BMP280;61956;52.540;13.382;2022-10-17T00:11:59;90776.59;;;14.87
73662;BMP280;61956;52.540;13.382;2022-10-17T00:14:28;90311.91;;;14.86
73662;BMP280;61956;52.540;13.382;2022-10-17T00:16:58;90156.97;;;14.85
73662;BMP280;61956;52.540;13.382;2022-10-17T00:19:27;90214.38;;;14.87
73662;BMP280;61956;52.540;13.382;2022-10-17T00:21:56;91989.16;;;15.03
73662;BMP280;61956;52.540;13.382;2022-10-17T00:24:29;93353.63;;;15.21
73662;BMP280;61956;52.540;13.382;2022-10-17T00:26:58;93107.28;;;15.26
73662;BMP280;61956;52.540;13.382;2022-10-17T00:29:28;91690.31;;;15.21
73662;BMP280;61956;52.540;13.382;2022-10-17T00:31:57;89866.50;;;15.05
73662;BMP280;61956;52.540;13.382;2022-10-17T00:34:28;89878.50;;;15.00
73662;BMP280;61956;52.540;13.382;2022-10-17T00:36:58;90371.34;;;15.03
73662;BMP280;61956;52.540;13.382;2022-10-17T00:39:30;90270.50;;;15.03
73662;BMP280;61956;52.540;13.382;2022-10-17T00:41:59;90705.00;;;15.07
73662;BMP280;61956;52.540;13.382;2022-10-17T00:47:30;89204.03;;;14.94
73662;BMP280;61956;52.540;13.382;2022-10-17T00:50:04;89190.84;;;14.92
73662;BMP280;61956;52.540;13.382;2022-10-17T00:52:35;89160.84;;;14.91
73662;BMP280;61956;52.540;13.382;2022-10-17T00:55:12;89303.81;;;14.89
73662;BMP280;61956;52.540;13.382;2022-10-17T00:57:44;89309.72;;;14.90
73662;BMP280;61956;52.540;13.382;2022-10-17T01:00:18;89668.38;;;14.93
73662;BMP280;61956;52.540;13.382;2022-10-17T01:02:47;89677.44;;;14.92
73662;BMP280;61956;52.540;13.382;2022-10-17T01:05:21;90479.78;;;15.00
73662;BMP280;61956;52.540;13.382;2022-10-17T01:07:51;92401.34;;;15.19
73662;BMP280;61956;52.540;13.382;2022-10-17T01:10:29;93020.63;;;15.31
73662;BMP280;61956;52.540;13.382;2022-10-17T01:13:07;92891.56;;;15.36
73662;BMP280;61956;52.540;13.382;2022-10-17T01:15:49;91310.59;;;15.27
73662;BMP280;61956;52.540;13.382;2022-10-17T01:18:35;89061.63;;;15.04
73662;BMP280;61956;52.540;13.382;2022-10-17T01:21:31;88293.38;;;14.92
73662;BMP280;61956;52.540;13.382;2022-10-17T01:24:26;87847.53;;;14.83
73662;BMP280;61956;52.540;13.382;2022-10-17T01:27:33;87158.75;;;14.72
73662;BMP280;61956;52.540;13.382;2022-10-17T01:30:31;86567.19;;;14.63
73662;BMP280;61956;52.540;13.382;2022-10-17T01:33:28;86634.63;;;14.58
73662;BMP280;61956;52.540;13.382;2022-10-17T01:36:07;87023.69;;;14.58
73662;BMP280;61956;52.540;13.382;2022-10-17T01:38:44;87815.94;;;14.64
73662;BMP280;61956;52.540;13.382;2022-10-17T01:41:26;88858.50;;;14.73
73662;BMP280;61956;52.540;13.382;2022-10-17T01:44:10;88091.19;;;14.69
73662;BMP280;61956;52.540;13.382;2022-10-17T01:46:45;87807.59;;;14.65
73662;BMP280;61956;52.540;13.382;2022-10-17T01:49:23;87101.66;;;14.58
73662;BMP280;61956;52.540;13.382;2022-10-17T01:52:00;86810.41;;;14.52
73662;BMP280;61956;52.540;13.382;2022-10-17T01:54:38;86540.13;;;14.48
73662;BMP280;61956;52.540;13.382;2022-10-17T01:57:20;86642.00;;;14.46
73662;BMP280;61956;52.540;13.382;2022-10-17T01:59:55;86417.84;;;14.42
73662;BMP280;61956;52.540;13.382;2022-10-17T02:02:25;86374.31;;;14.40
73662;BMP280;61956;52.540;13.382;2022-10-17T02:04:58;86285.22;;;14.36
73662;BMP280;61956;52.540;13.382;2022-10-17T02:07:30;86425.44;;;14.36
73662;BMP280;61956;52.540;13.382;2022-10-17T02:09:59;85822.88;;;14.29
73662;BMP280;61956;52.540;13.382;2022-10-17T02:12:37;85982.53;;;14.28
73662;BMP280;61956;52.540;13.382;2022-10-17T02:18:43;85940.84;;;14.22
73662;BMP280;61956;52.540;13.382;2022-10-17T02:21:26;85918.75;;;14.21
73662;BMP280;61956;52.540;13.382;2022-10-17T02:24:07;85853.81;;;14.19
73662;BMP280;61956;52.540;13.382;2022-10-17T02:26:51;87218.59;;;14.28
73662;BMP280;61956;52.540;13.382;2022-10-17T02:29:30;87098.47;;;14.28
73662;BMP280;61956;52.540;13.382;2022-10-17T02:32:06;87902.25;;;14.37
73662;BMP280;61956;52.540;13.382;2022-10-17T02:34:42;88261.06;;;14.41
73662;BMP280;61956;52.540;13.382;2022-10-17T02:37:19;88413.97;;;14.44
73662;BMP280;61956;52.540;13.382;2022-10-17T02:39:53;88946.59;;;14.50
73662;BMP280;61956;52.540;13.382;2022-10-17T02:42:25;89090.41;;;14.52
73662;BMP280;61956;52.540;13.382;2022-10-17T02:44:58;89190.75;;;14.55
73662;BMP280;61956;52.540;13.382;2022-10-17T02:47:35;89103.69;;;14.56
73662;BMP280;61956;52.540;13.382;2022-10-17T02:50:10;88429.38;;;14.52
73662;BMP280;61956;52.540;13.382;2022-10-17T02:52:45;88682.25;;;14.52
73662;BMP280;61956;52.540;13.382;2022-10-17T02:55:24;89602.13;;;14.62
73662;BMP280;61956;52.540;13.382;2022-10-17T02:58:02;90180.81;;;14.68
73662;BMP280;61956;52.540;13.382;2022-10-17T03:00:38;90035.31;;;14.70
73662;BMP280;61956;52.540;13.382;2022-10-17T03:03:20;89810.88;;;14.70
73662;BMP280;61956;52.540;13.382;2022-10-17T03:05:51;89190.13;;;14.65
73662;BMP280;61956;52.540;13.382;2022-10-17T03:08:27;89327.97;;;14.65
73662;BMP280;61956;52.540;13.382;2022-10-17T03:10:57;89729.53;;;14.69
73662;BMP280;61956;52.540;13.382;2022-10-17T03:13:27;88829.75;;;14.62
73662;BMP280;61956;52.540;13.382;2022-10-17T03:15:57;88887.66;;;14.62
73662;BMP280;61956;52.540;13.382;2022-10-17T03:18:28;89126.19;;;14.62
73662;BMP280;61956;52.540;13.382;2022-10-17T03:20:59;89633.84;;;14.68
73662;BMP280;61956;52.540;13.382;2022-10-17T03:23:31;89620.28;;;14.69
73662;BMP280;61956;52.540;13.382;2022-10-17T03:26:02;89802.53;;;14.71
73662;BMP280;61956;52.540;13.382;2022-10-17T03:28:33;89885.97;;;14.73
73662;BMP280;61956;52.540;13.382;2022-10-17T03:31:06;89602.94;;;14.72
73662;BMP280;61956;52.540;13.382;2022-10-17T03:33:37;89985.00;;;14.75
73662;BMP280;61956;52.540;13.382;2022-10-17T03:36:07;90291.72;;;14.79
73662;BMP280;61956;52.540;13.382;2022-10-17T03:38:40;90374.50;;;14.80
73662;BMP280;61956;52.540;13.382;2022-10-17T03:41:11;90456.75;;;14.83
73662;BMP280;61956;52.540;13.382;2022-10-17T03:43:41;90245.78;;;14.81
73662;BMP280;61956;52.540;13.382;2022-10-17T03:46:11;89798.06;;;14.79
73662;BMP280;61956;52.540;13.382;2022-10-17T03:48:40;90178.09;;;14.81
73662;BMP280;61956;52.540;13.382;2022-10-17T03:51:09;90327.34;;;14.84
73662;BMP280;61956;52.540;13.382;2022-10-17T03:53:48;90195.81;;;14.83
73662;BMP280;61956;52.540;13.382;2022-10-17T03:56:19;89977.22;;;14.83
73662;BMP280;61956;52.540;13.382;2022-10-17T03:59:01;90031.84;;;14.83
73662;BMP280;61956;52.540;13.382;2022-10-17T04:01:33;90235.03;;;14.85
73662;BMP280;61956;52.540;13.382;2022-10-17T04:04:03;90255.84;;;14.85
73662;BMP280;61956;52.540;13.382;2022-10-17T04:06:34;90411.47;;;14.87
73662;BMP280;61956;52.540;13.382;2022-10-17T04:09:07;90019.03;;;14.85
73662;BMP280;61956;52.540;13.382;2022-10-17T04:12:01;89878.34;;;14.83
73662;BMP280;61956;52.540;13.382;2022-10-17T04:14:31;89186.53;;;14.77
73662;BMP280;61956;52.540;13.382;2022-10-17T04:17:01;89253.31;;;14.75
73662;BMP280;61956;52.540;13.382;2022-10-17T04:19:32;88650.19;;;14.69
73662;BMP280;61956;52.540;13.382;2022-10-17T04:22:01;88831.69;;;14.71
73662;BMP280;61956;52.540;13.382;2022-10-17T04:24:38;88814.59;;;14.68
73662;BMP280;61956;52.540;13.382;2022-10-17T04:27:09;89488.63;;;14.74
73662;BMP280;61956;52.540;13.382;2022-10-17T04:29:42;88876.44;;;14.69
73662;BMP280;61956;52.540;13.382;2022-10-17T04:32:16;89016.88;;;14.69
73662;BMP280;61956;52.540;13.382;2022-10-17T04:34:54;88987.44;;;14.67
73662;BMP280;61956;52.540;13.382;2022-10-17T04:37:23;88920.53;;;14.67
73662;BMP280;61956;52.540;13.382;2022-10-17T04:39:56;88761.06;;;14.65
73662;BMP280;61956;52.540;13.382;2022-10-17T04:42:27;88192.66;;;14.60
73662;BMP280;61956;52.540;13.382;2022-10-17T04:44:57;88425.25;;;14.58
73662;BMP280;61956;52.540;13.382;2022-10-17T04:47:26;87521.00;;;14.51
73662;BMP280;61956;52.540;13.382;2022-10-17T04:49:56;87517.63;;;14.48
73662;BMP280;61956;52.540;13.382;2022-10-17T04:52:25;87507.78;;;14.47
73662;BMP280;61956;52.540;13.382;2022-10-17T04:54:57;87492.13;;;14.45
73662;BMP280;61956;52.540;13.382;2022-10-17T04:57:26;87565.47;;;14.43
73662;BMP280;61956;52.540;13.382;2022-10-17T05:00:04;87379.53;;;14.40
73662;BMP280;61956;52.540;13.382;2022-10-17T05:02:59;87842.81;;;14.43
73662;BMP280;61956;52.540;13.382;2022-10-17T05:05:29;87622.50;;;14.41
73662;BMP280;61956;52.540;13.382;2022-10-17T05:08:02;87657.53;;;14.40
73662;BMP280;61956;52.540;13.382;2022-10-17T05:10:39;88315.91;;;14.45
73662;BMP280;61956;52.540;13.382;2022-10-17T05:13:09;88481.13;;;14.48
73662;BMP280;61956;52.540;13.382;2022-10-17T05:15:39;87969.56;;;14.44
73662;BMP280;61956;52.540;13.382;2022-10-17T05:18:10;88989.53;;;14.51
73662;BMP280;61956;52.540;13.382;2022-10-17T05:20:42;88769.81;;;14.50
73662;BMP280;61956;52.540;13.382;2022-10-17T05:23:11;88447.34;;;14.48
73662;BMP280;61956;52.540;13.382;2022-10-17T05:25:44;88116.44;;;14.45
73662;BMP280;61956;52.540;13.382;2022-10-17T05:28:13;88013.63;;;14.42
73662;BMP280;61956;52.540;13.382;2022-10-17T05:30:43;87808.25;;;14.40
73662;BMP280;61956;52.540;13.382;2022-10-17T05:33:12;87691.88;;;14.39
73662;BMP280;61956;52.540;13.382;2022-10-17T05:35:41;87931.59;;;14.39
73662;BMP280;61956;52.540;13.382;2022-10-17T05:38:10;88060.28;;;14.40
73662;BMP280;61956;52.540;13.382;2022-10-17T05:40:44;87624.81;;;14.35
73662;BMP280;61956;52.540;13.382;2022-10-17T05:43:13;88049.78;;;14.38
73662;BMP280;61956;52.540;13.382;2022-10-17T05:45:44;88125.16;;;14.38
73662;BMP280;61956;52.540;13.382;2022-10-17T05:48:17;88329.19;;;14.39
73662;BMP280;61956;52.540;13.382;2022-10-17T05:50:47;88121.88;;;14.38
73662;BMP280;61956;52.540;13.382;2022-10-17T05:53:16;88513.16;;;14.41
73662;BMP280;61956;52.540;13.382;2022-10-17T05:55:57;89032.09;;;14.46
73662;BMP280;61956;52.540;13.382;2022-10-17T05:58:28;88925.50;;;14.46
73662;BMP280;61956;52.540;13.382;2022-10-17T06:01:01;88998.44;;;14.48
73662;BMP280;61956;52.540;13.382;2022-10-17T06:03:32;89231.88;;;14.49
73662;BMP280;61956;52.540;13.382;2022-10-17T06:06:06;89299.50;;;14.49
73662;BMP280;61956;52.540;13.382;2022-10-17T06:08:47;89330.84;;;14.51
73662;BMP280;61956;52.540;13.382;2022-10-17T06:11:25;89217.13;;;14.52
73662;BMP280;61956;52.540;13.382;2022-10-17T06:13:54;89788.88;;;14.55
73662;BMP280;61956;52.540;13.382;2022-10-17T06:16:25;90163.25;;;14.61
73662;BMP280;61956;52.540;13.382;2022-10-17T06:18:54;90054.69;;;14.62
73662;BMP280;61956;52.540;13.382;2022-10-17T06:21:25;90541.09;;;14.67
73662;BMP280;61956;52.540;13.382;2022-10-17T06:24:03;93595.91;;;14.97
73662;BMP280;61956;52.540;13.382;2022-10-17T06:26:41;92903.03;;;14.99
73662;BMP280;61956;52.540;13.382;2022-10-17T06:29:14;94274.06;;;15.18
73662;BMP280;61956;52.540;13.382;2022-10-17T06:31:47;93614.13;;;15.16
73662;BMP280;61956;52.540;13.382;2022-10-17T06:34:16;93253.28;;;15.17
73662;BMP280;61956;52.540;13.382;2022-10-17T06:36:46;94125.13;;;15.28
73662;BMP280;61956;52.540;13.382;2022-10-17T06:39:17;93496.84;;;15.25
73662;BMP280;61956;52.540;13.382;2022-10-17T06:41:58;93786.84;;;15.29
73662;BMP280;61956;52.540;13.382;2022-10-17T06:44:44;92842.56;;;15.25
73662;BMP280;61956;52.540;13.382;2022-10-17T06:47:32;92656.34;;;15.26
73662;BMP280;61956;52.540;13.382;2022-10-17T06:50:09;92068.09;;;15.21
73662;BMP280;61956;52.540;13.382;2022-10-17T06:53:01;92925.78;;;15.28
73662;BMP280;61956;52.540;13.382;2022-10-17T06:55:42;92586.22;;;15.28
73662;BMP280;61956;52.540;13.382;2022-10-17T06:58:21;93776.72;;;15.40
73662;BMP280;61956;52.540;13.382;2022-10-17T07:01:07;93523.34;;;15.42
73662;BMP280;61956;52.540;13.382;2022-10-17T07:03:39;94182.56;;;15.50
73662;BMP280;61956;52.540;13.382;2022-10-17T07:06:09;94924.03;;;15.62
73662;BMP280;61956;52.540;13.382;2022-10-17T07:08:42;96616.63;;;15.80
73662;BMP280;61956;52.540;13.382;2022-10-17T07:11:15;95605.91;;;15.80
73662;BMP280;61956;52.540;13.382;2022-10-17T07:13:51;95383.13;;;15.83
73662;BMP280;61956;52.540;13.382;2022-10-17T07:16:21;95753.56;;;15.88
73662;BMP280;61956;52.540;13.382;2022-10-17T07:18:59;96124.81;;;15.97
73662;BMP280;61956;52.540;13.382;2022-10-17T07:21:33;96293.88;;;16.04
73662;BMP280;61956;52.540;13.382;2022-10-17T07:24:04;96253.19;;;16.10
73662;BMP280;61956;52.540;13.382;2022-10-17T07:26:33;96769.97;;;16.20
73662;BMP280;61956;52.540;13.382;2022-10-17T07:29:06;96328.97;;;16.21
73662;BMP280;61956;52.540;13.382;2022-10-17T07:32:05;97468.66;;;16.37
73662;BMP280;61956;52.540;13.382;2022-10-17T07:34:35;97274.44;;;16.43
73662;BMP280;61956;52.540;13.382;2022-10-17T07:37:05;97129.94;;;16.46
73662;BMP280;61956;52.540;13.382;2022-10-17T07:39:36;96944.63;;;16.48
73662;BMP280;61956;52.540;13.382;2022-10-17T07:42:05;96310.28;;;16.47
73662;BMP280;61956;52.540;13.382;2022-10-17T07:44:38;97210.38;;;16.56
73662;BMP280;61956;52.540;13.382;2022-10-17T07:47:08;97267.28;;;16.63
73662;BMP280;61956;52.540;13.382;2022-10-17T07:49:37;97359.31;;;16.69
73662;BMP280;61956;52.540;13.382;2022-10-17T07:52:09;97577.69;;;16.75
73662;BMP280;61956;52.540;13.382;2022-10-17T07:54:38;96750.09;;;16.71
73662;BMP280;61956;52.540;13.382;2022-10-17T07:57:09;97651.13;;;16.82
73662;BMP280;61956;52.540;13.382;2022-10-17T07:59:40;97711.03;;;16.87
73662;BMP280;61956;52.540;13.382;2022-10-17T08:02:13;97638.56;;;16.91
73662;BMP280;61956;52.540;13.382;2022-10-17T08:04:49;98183.75;;;17.00
73662;BMP280;61956;52.540;13.382;2022-10-17T08:07:19;98437.34;;;17.10
73662;BMP280;61956;52.540;13.382;2022-10-17T08:09:48;98665.47;;;17.18
73662;BMP280;61956;52.540;13.382;2022-10-17T08:12:17;98803.81;;;17.24
73662;BMP280;61956;52.540;13.382;2022-10-17T08:14:49;98219.94;;;17.26
73662;BMP280;61956;52.540;13.382;2022-10-17T08:17:18;98969.72;;;17.37
73662;BMP280;61956;52.540;13.382;2022-10-17T08:19:48;99964.19;;;17.55
73662;BMP280;61956;52.540;13.382;2022-10-17T08:22:19;99333.44;;;17.57
73662;BMP280;61956;52.540;13.382;2022-10-17T08:24:48;100051.19;;;17.71
73662;BMP280;61956;52.540;13.382;2022-10-17T08:27:17;99491.09;;;17.73
73662;BMP280;61956;52.540;13.382;2022-10-17T08:29:52;99282.94;;;17.78
73662;BMP280;61956;52.540;13.382;2022-10-17T08:32:25;99367.81;;;17.82
73662;BMP280;61956;52.540;13.382;2022-10-17T08:34:55;99148.72;;;17.84
73662;BMP280;61956;52.540;13.382;2022-10-17T08:37:24;99008.25;;;17.87
73662;BMP280;61956;52.540;13.382;2022-10-17T08:39:54;99475.53;;;17.94
73662;BMP280;61956;52.540;13.382;2022-10-17T08:42:43;99713.25;;;18.04
73662;BMP280;61956;52.540;13.382;2022-10-17T08:45:26;101022.94;;;18.24
73662;BMP280;61956;52.540;13.382;2022-10-17T08:48:01;100327.28;;;18.28
73662;BMP280;61956;52.540;13.382;2022-10-17T08:50:39;99932.63;;;18.27
73662;BMP280;61956;52.540;13.382;2022-10-17T08:53:28;100452.03;;;18.39
73662;BMP280;61956;52.540;13.382;2022-10-17T08:56:06;100668.47;;;18.43
73662;BMP280;61956;52.540;13.382;2022-10-17T08:58:43;101807.25;;;18.67
73662;BMP280;61956;52.540;13.382;2022-10-17T09:01:28;101430.28;;;18.74
73662;BMP280;61956;52.540;13.382;2022-10-17T09:04:30;101112.19;;;18.79
73662;BMP280;61956;52.540;13.382;2022-10-17T09:07:12;100859.47;;;18.85
73662;BMP280;61956;52.540;13.382;2022-10-17T09:09:56;100350.13;;;18.82
73662;BMP280;61956;52.540;13.382;2022-10-17T09:12:39;100933.28;;;18.94
73662;BMP280;61956;52.540;13.382;2022-10-17T09:15:36;101379.13;;;19.05
73662;BMP280;61956;52.540;13.382;2022-10-17T09:18:18;101753.22;;;19.17
73662;BMP280;61956;52.540;13.382;2022-10-17T09:20:55;102137.94;;;19.30
73662;BMP280;61956;52.540;13.382;2022-10-17T09:23:30;101938.25;;;19.38
73662;BMP280;61956;52.540;13.382;2022-10-17T09:26:09;102149.94;;;19.48
73662;BMP280;61956;52.540;13.382;2022-10-17T09:28:41;101966.19;;;19.55
73662;BMP280;61956;52.540;13.382;2022-10-17T09:31:15;102663.38;;;19.69
73662;BMP280;61956;52.540;13.382;2022-10-17T09:33:55;102299.94;;;19.75
73662;BMP280;61956;52.540;13.382;2022-10-17T09:36:29;103180.06;;;19.90
73662;BMP280;61956;52.540;13.382;2022-10-17T09:39:03;103914.47;;;20.09
73662;BMP280;61956;52.540;13.382;2022-10-17T09:41:35;103110.75;;;20.18
73662;BMP280;61956;52.540;13.382;2022-10-17T09:44:29;102310.97;;;20.14
73662;BMP280;61956;52.540;13.382;2022-10-17T09:49:56;102247.97;;;20.17
73662;BMP280;61956;52.540;13.382;2022-10-17T09:52:28;102176.28;;;20.25
73662;BMP280;61956;52.540;13.382;2022-10-17T09:55:04;101611.78;;;20.23
73662;BMP280;61956;52.540;13.382;2022-10-17T09:57:54;103193.19;;;20.42
73662;BMP280;61956;52.540;13.382;2022-10-17T10:00:26;104262.06;;;20.70
73662;BMP280;61956;52.540;13.382;2022-10-17T10:03:08;103852.63;;;20.78
73662;BMP280;61956;52.540;13.382;2022-10-17T10:05:59;104167.84;;;20.96
73662;BMP280;61956;52.540;13.382;2022-10-17T10:08:31;102981.75;;;20.89
73662;BMP280;61956;52.540;13.382;2022-10-17T10:11:05;102594.34;;;20.86
73662;BMP280;61956;52.540;13.382;2022-10-17T10:13:35;103791.97;;;21.02
73662;BMP280;61956;52.540;13.382;2022-10-17T10:16:20;104731.56;;;21.26
73662;BMP280;61956;52.540;13.382;2022-10-17T10:18:50;104694.53;;;21.40
73662;BMP280;61956;52.540;13.382;2022-10-17T10:21:23;103974.47;;;21.42
73662;BMP280;61956;52.540;13.382;2022-10-17T10:24:11;104432.56;;;21.54
73662;BMP280;61956;52.540;13.382;2022-10-17T10:26:45;104427.41;;;21.66
73662;BMP280;61956;52.540;13.382;2022-10-17T10:29:23;104158.69;;;21.72
73662;BMP280;61956;52.540;13.382;2022-10-17T10:32:06;104259.09;;;21.78
73662;BMP280;61956;52.540;13.382;2022-10-17T10:34:42;104081.25;;;21.83
73662;BMP280;61956;52.540;13.382;2022-10-17T10:37:21;103259.72;;;21.78
73662;BMP280;61956;52.540;13.382;2022-10-17T10:39:54;102242.78;;;21.65
73662;BMP280;61956;52.540;13.382;2022-10-17T10:42:28;103503.22;;;21.82
73662;BMP280;61956;52.540;13.382;2022-10-17T10:45:03;103777.63;;;21.92
73662;BMP280;61956;52.540;13.382;2022-10-17T10:47:51;103651.63;;;21.97
73662;BMP280;61956;52.540;13.382;2022-10-17T10:50:28;104116.06;;;22.10
73662;BMP280;61956;52.540;13.382;2022-10-17T10:53:15;104015.97;;;22.19
73662;BMP280;61956;52.540;13.382;2022-10-17T10:56:07;102404.44;;;21.98
73662;BMP280;61956;52.540;13.382;2022-10-17T10:58:50;102764.25;;;22.01
73662;BMP280;61956;52.540;13.382;2022-10-17T11:01:28;103319.09;;;22.09
73662;BMP280;61956;52.540;13.382;2022-10-17T11:04:11;103482.97;;;22.21
73662;BMP280;61956;52.540;13.382;2022-10-17T11:06:58;103445.47;;;22.24
73662;BMP280;61956;52.540;13.382;2022-10-17T11:09:46;103936.13;;;22.33
73662;BMP280;61956;52.540;13.382;2022-10-17T11:12:24;103296.97;;;22.43
73662;BMP280;61956;52.540;13.382;2022-10-17T11:15:06;105069.56;;;22.62
73662;BMP280;61956;52.540;13.382;2022-10-17T11:17:51;103764.44;;;22.65
73662;BMP280;61956;52.540;13.382;2022-10-17T11:20:32;103782.16;;;22.65
73662;BMP280;61956;52.540;13.382;2022-10-17T11:23:15;104270.03;;;22.72
73662;BMP280;61956;52.540;13.382;2022-10-17T11:25:52;102244.91;;;22.67
73662;BMP280;61956;52.540;13.382;2022-10-17T11:28:24;102296.31;;;22.51
73662;BMP280;61956;52.540;13.382;2022-10-17T11:30:56;101580.16;;;22.43
73662;BMP280;61956;52.540;13.382;2022-10-17T11:33:33;101163.72;;;22.40
73662;BMP280;61956;52.540;13.382;2022-10-17T11:36:09;101222.28;;;22.33
73662;BMP280;61956;52.540;13.382;2022-10-17T11:38:45;102732.88;;;22.51
73662;BMP280;61956;52.540;13.382;2022-10-17T11:41:23;104098.16;;;22.82
73662;BMP280;61956;52.540;13.382;2022-10-17T11:43:59;104740.22;;;23.00
73662;BMP280;61956;52.540;13.382;2022-10-17T11:46:34;105816.13;;;23.36
73662;BMP280;61956;52.540;13.382;2022-10-17T11:49:09;105100.66;;;23.38
73662;BMP280;61956;52.540;13.382;2022-10-17T11:51:44;104732.00;;;23.44
73662;BMP280;61956;52.540;13.382;2022-10-17T11:54:18;104576.72;;;23.48
73662;BMP280;61956;52.540;13.382;2022-10-17T11:57:16;103885.75;;;23.47
73662;BMP280;61956;52.540;13.382;2022-10-17T12:00:19;104117.09;;;23.55
73662;BMP280;61956;52.540;13.382;2022-10-17T12:03:04;104331.28;;;23.64
73662;BMP280;61956;52.540;13.382;2022-10-17T12:05:44;104264.59;;;23.72
73662;BMP280;61956;52.540;13.382;2022-10-17T12:08:24;103655.56;;;23.61
73662;BMP280;61956;52.540;13.382;2022-10-17T12:11:02;104733.72;;;23.87
73662;BMP280;61956;52.540;13.382;2022-10-17T12:13:55;102924.34;;;23.73
73662;BMP280;61956;52.540;13.382;2022-10-17T12:16:39;104331.78;;;23.90
73662;BMP280;61956;52.540;13.382;2022-10-17T12:19:36;104904.75;;;24.10
73662;BMP280;61956;52.540;13.382;2022-10-17T12:22:20;104018.94;;;24.05
73662;BMP280;61956;52.540;13.382;2022-10-17T12:24:57;102977.38;;;23.99
73662;BMP280;61956;52.540;13.382;2022-10-17T12:30:20;104342.72;;;24.05
73662;BMP280;61956;52.540;13.382;2022-10-17T12:32:54;104404.88;;;24.21
73662;BMP280;61956;52.540;13.382;2022-10-17T12:35:47;103732.78;;;24.19
73662;BMP280;61956;52.540;13.382;2022-10-17T12:38:24;103673.34;;;24.20
73662;BMP280;61956;52.540;13.382;2022-10-17T12:40:59;103618.19;;;24.27
73662;BMP280;61956;52.540;13.382;2022-10-17T12:43:51;104218.00;;;24.39
73662;BMP280;61956;52.540;13.382;2022-10-17T12:49:48;103256.44;;;24.31
73662;BMP280;61956;52.540;13.382;2022-10-17T12:52:23;102650.13;;;24.24
73662;BMP280;61956;52.540;13.382;2022-10-17T12:54:57;101939.34;;;24.14
73662;BMP280;61956;52.540;13.382;2022-10-17T12:57:37;103899.66;;;24.37
73662;BMP280;61956;52.540;13.382;2022-10-17T13:00:32;103500.19;;;24.50
73662;BMP280;61956;52.540;13.382;2022-10-17T13:03:11;101778.72;;;24.21
73662;BMP280;61956;52.540;13.382;2022-10-17T13:05:48;102877.47;;;24.33
73662;BMP280;61956;52.540;13.382;2022-10-17T13:08:21;103107.53;;;24.43
73662;BMP280;61956;52.540;13.382;2022-10-17T13:10:53;102496.38;;;24.38
73662;BMP280;61956;52.540;13.382;2022-10-17T13:13:32;101548.34;;;24.28
73662;BMP280;61956;52.540;13.382;2022-10-17T13:16:05;99572.94;;;23.83
73662;BMP280;61956;52.540;13.382;2022-10-17T13:18:38;102390.25;;;24.14
73662;BMP280;61956;52.540;13.382;2022-10-17T13:21:14;102683.22;;;24.31
73662;BMP280;61956;52.540;13.382;2022-10-17T13:23:44;102543.34;;;24.37
73662;BMP280;61956;52.540;13.382;2022-10-17T13:26:18;101606.34;;;24.21
73662;BMP280;61956;52.540;13.382;2022-10-17T13:29:01;100428.97;;;24.05
73662;BMP280;61956;52.540;13.382;2022-10-17T13:31:33;102106.38;;;24.19
73662;BMP280;61956;52.540;13.382;2022-10-17T13:34:15;103222.47;;;24.44
73662;BMP280;61956;52.540;13.382;2022-10-17T13:36:47;102999.22;;;24.50
73662;BMP280;61956;52.540;13.382;2022-10-17T13:39:21;100366.56;;;24.08
73662;BMP280;61956;52.540;13.382;2022-10-17T13:41:54;102416.81;;;24.32
73662;BMP280;61956;52.540;13.382;2022-10-17T13:44:25;103032.13;;;24.49
73662;BMP280;61956;52.540;13.382;2022-10-17T13:47:01;102613.75;;;24.53
73662;BMP280;61956;52.540;13.382;2022-10-17T13:49:36;102153.13;;;24.47
73662;BMP280;61956;52.540;13.382;2022-10-17T13:52:16;102336.94;;;24.53
73662;BMP280;61956;52.540;13.382;2022-10-17T13:54:48;101434.78;;;24.39
73662;BMP280;61956;52.540;13.382;2022-10-17T13:57:21;100828.88;;;24.28
73662;BMP280;61956;52.540;13.382;2022-10-17T13:59:53;101597.22;;;24.36
73662;BMP280;61956;52.540;13.382;2022-10-17T14:02:27;101108.69;;;24.34
73662;BMP280;61956;52.540;13.382;2022-10-17T14:05:10;101304.97;;;24.34
73662;BMP280;61956;52.540;13.382;2022-10-17T14:07:43;99405.88;;;23.91
73662;BMP280;61956;52.540;13.382;2022-10-17T14:10:19;100852.84;;;24.11
73662;BMP280;61956;52.540;13.382;2022-10-17T14:12:53;99385.78;;;23.90
73662;BMP280;61956;52.540;13.382;2022-10-17T14:15:25;100353.75;;;23.98
73662;BMP280;61956;52.540;13.382;2022-10-17T14:17:59;99510.63;;;23.89
73662;BMP280;61956;52.540;13.382;2022-10-17T14:20:34;101202.63;;;24.07
73662;BMP280;61956;52.540;13.382;2022-10-17T14:23:04;101755.06;;;24.25
73662;BMP280;61956;52.540;13.382;2022-10-17T14:26:04;101656.19;;;24.33
73662;BMP280;61956;52.540;13.382;2022-10-17T14:28:33;101164.56;;;24.29
73662;BMP280;61956;52.540;13.382;2022-10-17T14:31:12;101165.78;;;24.31
73662;BMP280;61956;52.540;13.382;2022-10-17T14:33:51;100315.06;;;24.21
73662;BMP280;61956;52.540;13.382;2022-10-17T14:36:33;100296.53;;;24.09
73662;BMP280;61956;52.540;13.382;2022-10-17T14:39:17;98950.63;;;23.86
73662;BMP280;61956;52.540;13.382;2022-10-17T14:41:48;99195.34;;;23.82
73662;BMP280;61956;52.540;13.382;2022-10-17T14:44:22;100223.47;;;23.96
73662;BMP280;61956;52.540;13.382;2022-10-17T14:46:57;98743.25;;;23.75
73662;BMP280;61956;52.540;13.382;2022-10-17T14:49:33;98457.66;;;23.63
73662;BMP280;61956;52.540;13.382;2022-10-17T14:52:28;99090.75;;;23.65
73662;BMP280;61956;52.540;13.382;2022-10-17T14:54:59;97729.38;;;23.37
73662;BMP280;61956;52.540;13.382;2022-10-17T14:57:46;98536.25;;;23.44